Time;durP1;ratioP1;P1;durP2;ratioP2;P2;SDS_P1;SDS_P2;PMS_P1;PMS_P2;Temp;Humidity;BMP_temperature;BMP_pressure;BME280_temperature;BME280_humidity;BME280_pressure;Samples;Min_cycle;Max_cycle;Signal;HPM_P1;HPM_P2
2021/12/14 00:01:18;;;;;;;4.45;2.83;;;9.70;99.90;;;;;;4167010;28;20040;-65
2021/12/14 00:03:24;;;;;;;6.75;2.60;;;9.70;99.90;;;;;;4168068;28;20048;-65
2021/12/14 00:05:31;;;;;;;4.53;3.05;;;9.70;99.90;;;;;;4166948;28;20040;-65
2021/12/14 00:07:31;;;;;;;4.28;2.92;;;9.70;99.90;;;;;;4167811;28;20383;-65
2021/12/14 00:09:36;;;;;;;5.30;3.10;;;9.70;99.90;;;;;;4167874;28;20100;-65
2021/12/14 00:11:54;;;;;;;4.35;3.05;;;9.70;99.90;;;;;;4166520;28;20498;-65
2021/12/14 00:14:26;;;;;;;4.25;3.05;;;9.70;99.90;;;;;;4167729;28;20029;-64
2021/12/14 00:16:27;;;;;;;4.35;3.38;;;9.70;99.90;;;;;;4166568;28;20364;-65
2021/12/14 00:18:27;;;;;;;3.92;2.90;;;9.70;99.90;;;;;;4167738;28;20114;-65
2021/12/14 00:20:40;;;;;;;4.82;3.35;;;9.70;99.90;;;;;;4166786;28;20029;-65
2021/12/14 00:24:56;;;;;;;6.03;3.00;;;9.60;99.90;;;;;;4167740;28;20091;-64
2021/12/14 00:27:03;;;;;;;4.47;3.20;;;9.70;99.90;;;;;;4166755;28;20030;-65
2021/12/14 00:29:05;;;;;;;4.97;3.00;;;9.60;99.90;;;;;;4167603;28;20460;-65
2021/12/14 00:31:10;;;;;;;6.45;3.70;;;9.70;99.90;;;;;;4166598;28;20033;-65
2021/12/14 00:33:15;;;;;;;5.70;3.65;;;9.70;99.90;;;;;;4167311;28;20044;-65
2021/12/14 00:35:16;;;;;;;4.88;3.58;;;9.60;99.90;;;;;;4166511;28;20041;-65
2021/12/14 00:37:26;;;;;;;5.32;3.30;;;9.60;99.90;;;;;;4167295;28;20456;-64
2021/12/14 00:39:27;;;;;;;5.65;3.90;;;9.60;99.90;;;;;;4167412;28;20034;-65
2021/12/14 00:41:34;;;;;;;5.32;3.58;;;9.60;99.90;;;;;;4166272;28;20131;-65
2021/12/14 00:43:35;;;;;;;5.18;3.28;;;9.60;99.90;;;;;;4167393;28;20403;-65
2021/12/14 00:45:39;;;;;;;5.45;3.45;;;9.60;99.90;;;;;;4166188;28;20457;-65
2021/12/14 00:47:40;;;;;;;4.47;3.35;;;9.60;99.90;;;;;;4167121;28;20044;-65
2021/12/14 00:49:40;;;;;;;4.25;3.20;;;9.50;99.90;;;;;;4166964;28;20029;-65
2021/12/14 00:51:41;;;;;;;5.50;3.60;;;9.60;99.90;;;;;;4165965;28;20064;-65
2021/12/14 00:53:42;;;;;;;5.28;3.63;;;9.50;99.90;;;;;;4166619;28;20133;-65
2021/12/14 00:55:46;;;;;;;7.15;3.55;;;9.50;99.90;;;;;;4166459;28;20041;-65
2021/12/14 00:57:47;;;;;;;5.28;3.45;;;9.50;99.90;;;;;;4167178;28;20468;-65
2021/12/14 00:59:48;;;;;;;4.88;3.25;;;9.50;99.90;;;;;;4166982;28;20152;-65
2021/12/14 01:01:56;;;;;;;4.65;3.38;;;9.50;99.90;;;;;;4165896;28;20033;-65
2021/12/14 01:04:01;;;;;;;5.97;3.13;;;9.50;99.90;;;;;;4166806;28;20114;-65
2021/12/14 01:06:04;;;;;;;4.20;3.25;;;9.50;99.90;;;;;;4166162;28;20040;-65
2021/12/14 01:08:09;;;;;;;6.90;3.63;;;9.50;99.90;;;;;;4166643;28;20099;-65
2021/12/14 01:10:29;;;;;;;4.05;3.17;;;9.50;99.90;;;;;;4166138;28;20037;-65
2021/12/14 01:12:43;;;;;;;5.40;3.75;;;9.50;99.90;;;;;;4166012;28;20053;-65
2021/12/14 01:15:00;;;;;;;4.72;3.45;;;9.50;99.90;;;;;;4166901;28;20464;-64
2021/12/14 01:17:11;;;;;;;4.10;3.35;;;9.50;99.90;;;;;;4165980;28;20388;-65
2021/12/14 01:19:15;;;;;;;6.80;3.45;;;9.50;99.90;;;;;;4166753;28;20034;-65
2021/12/14 01:21:42;;;;;;;4.30;3.28;;;9.50;99.90;;;;;;4165891;28;20163;-64
2021/12/14 01:23:45;;;;;;;4.45;3.13;;;9.50;99.90;;;;;;4166559;28;20037;-65
2021/12/14 01:25:52;;;;;;;4.00;3.17;;;9.60;99.90;;;;;;4165835;28;20021;-65
2021/12/14 01:28:04;;;;;;;3.80;2.80;;;9.50;99.90;;;;;;4166685;28;20037;-65
2021/12/14 01:30:13;;;;;;;6.55;3.47;;;9.50;99.90;;;;;;4166250;28;20041;-65
2021/12/14 01:32:14;;;;;;;6.05;3.60;;;9.50;99.90;;;;;;4166296;28;20073;-65
2021/12/14 01:34:19;;;;;;;5.65;3.42;;;9.60;99.90;;;;;;4166491;28;20427;-65
2021/12/14 01:36:29;;;;;;;6.47;2.97;;;9.50;99.90;;;;;;4165615;28;20045;-65
2021/12/14 01:40:53;;;;;;;4.55;3.10;;;9.50;99.90;;;;;;4165608;28;20032;-65
2021/12/14 01:42:54;;;;;;;3.92;3.22;;;9.50;99.90;;;;;;4166259;28;20108;-65
2021/12/14 01:45:13;;;;;;;4.18;3.10;;;9.60;99.90;;;;;;4166251;28;20435;-65
2021/12/14 01:47:33;;;;;;;4.85;3.03;;;9.60;99.90;;;;;;4166348;28;20477;-64
2021/12/14 01:49:34;;;;;;;3.90;2.72;;;9.60;99.90;;;;;;4166623;28;20426;-65
2021/12/14 01:51:39;;;;;;;6.43;3.47;;;9.50;99.90;;;;;;4164924;28;20038;-65
2021/12/14 01:53:43;;;;;;;4.13;3.10;;;9.50;99.90;;;;;;4165544;28;20068;-65
2021/12/14 01:55:50;;;;;;;3.97;3.08;;;9.50;99.90;;;;;;4165692;28;20033;-65
2021/12/14 01:57:55;;;;;;;5.90;3.45;;;9.50;99.90;;;;;;4164861;28;20033;-65
2021/12/14 01:59:58;;;;;;;4.70;3.17;;;9.50;99.90;;;;;;4165798;28;20032;-65
2021/12/14 02:02:20;;;;;;;4.03;3.08;;;9.50;99.90;;;;;;4164931;28;20030;-65
2021/12/14 02:04:23;;;;;;;3.90;3.20;;;9.50;99.90;;;;;;4165881;28;20479;-65
2021/12/14 02:06:29;;;;;;;4.05;3.13;;;9.50;99.90;;;;;;4165008;28;20033;-65
2021/12/14 02:08:33;;;;;;;4.05;2.92;;;9.50;99.90;;;;;;4165823;28;20109;-64
2021/12/14 02:10:36;;;;;;;5.55;3.30;;;9.50;99.90;;;;;;4164912;28;20080;-65
2021/12/14 02:12:40;;;;;;;4.75;3.55;;;9.50;99.90;;;;;;4165665;28;20061;-65
2021/12/14 02:14:41;;;;;;;4.97;3.38;;;9.50;99.90;;;;;;4165863;28;20056;-65
2021/12/14 02:16:46;;;;;;;4.72;3.17;;;9.40;99.90;;;;;;4164862;28;20033;-65
2021/12/14 02:18:51;;;;;;;4.90;3.60;;;9.50;99.90;;;;;;4165893;28;20034;-65
2021/12/14 02:21:00;;;;;;;4.78;3.05;;;9.40;99.90;;;;;;4164581;28;20018;-64
2021/12/14 02:23:01;;;;;;;4.47;3.42;;;9.40;99.90;;;;;;4165744;28;20117;-65
2021/12/14 02:25:05;;;;;;;6.60;4.20;;;9.40;99.90;;;;;;4165331;28;20029;-65
2021/12/14 02:27:06;;;;;;;5.38;3.80;;;9.30;99.90;;;;;;4164962;28;20029;-65
2021/12/14 02:29:10;;;;;;;4.72;3.45;;;9.40;99.90;;;;;;4165384;28;20033;-64
2021/12/14 02:31:16;;;;;;;4.35;3.45;;;9.30;99.90;;;;;;4164638;28;20034;-65
2021/12/14 02:33:21;;;;;;;5.13;3.67;;;9.30;99.90;;;;;;4165397;28;20040;-64
2021/12/14 02:35:25;;;;;;;4.45;3.83;;;9.30;99.90;;;;;;4164848;28;20504;-65
2021/12/14 02:37:43;;;;;;;8.25;3.97;;;9.30;99.90;;;;;;4165407;28;20035;-64
2021/12/14 02:41:54;;;;;;;5.53;4.07;;;9.30;99.90;;;;;;4164775;28;20068;-65
2021/12/14 02:43:57;;;;;;;6.78;4.65;;;9.30;99.90;;;;;;4165290;28;20056;-64
2021/12/14 02:46:15;;;;;;;6.53;4.72;;;9.30;99.90;;;;;;4164387;28;20029;-65
2021/12/14 02:48:16;;;;;;;5.75;4.38;;;9.30;99.90;;;;;;4165816;28;20037;-65
2021/12/14 02:50:17;;;;;;;10.32;5.65;;;9.30;99.90;;;;;;4164274;28;20528;-65
2021/12/14 02:52:29;;;;;;;7.88;5.30;;;9.20;99.90;;;;;;4165452;28;20065;-65
2021/12/14 02:54:35;;;;;;;6.63;4.88;;;9.20;99.90;;;;;;4165218;28;20040;-65
2021/12/14 02:56:39;;;;;;;7.57;5.18;;;9.20;99.90;;;;;;4164456;28;20502;-64
2021/12/14 02:58:41;;;;;;;9.38;6.13;;;9.20;99.90;;;;;;4165331;28;20468;-65
2021/12/14 03:00:50;;;;;;;7.38;4.50;;;9.20;99.90;;;;;;4164486;28;20029;-65
2021/12/14 03:02:52;;;;;;;6.35;5.05;;;9.20;99.90;;;;;;4165104;28;20033;-65
2021/12/14 03:05:05;;;;;;;6.75;4.72;;;9.20;99.90;;;;;;4165125;28;20472;-65
2021/12/14 03:07:06;;;;;;;9.32;5.85;;;9.20;99.90;;;;;;4164529;28;20033;-64
2021/12/14 03:09:16;;;;;;;9.00;5.53;;;9.20;99.90;;;;;;4165347;28;20064;-65
2021/12/14 03:11:17;;;;;;;7.80;5.63;;;9.20;99.90;;;;;;4164309;28;20036;-65
2021/12/14 03:13:18;;;;;;;11.60;6.20;;;9.20;99.90;;;;;;4164890;28;20041;-64
2021/12/14 03:15:46;;;;;;;6.47;5.05;;;9.20;99.90;;;;;;4163960;28;20096;-65
2021/12/14 03:17:50;;;;;;;7.45;5.78;;;9.20;99.90;;;;;;4164082;28;20034;-64
2021/12/14 03:20:09;;;;;;;8.63;5.53;;;9.20;99.90;;;;;;4165165;28;20056;-64
2021/12/14 03:22:30;;;;;;;9.73;6.20;;;9.20;99.90;;;;;;4164923;28;20065;-64
2021/12/14 03:24:30;;;;;;;12.38;6.30;;;9.10;99.90;;;;;;4164880;28;20553;-64
2021/12/14 03:26:34;;;;;;;8.10;6.18;;;9.10;99.90;;;;;;4164307;28;20034;-64
2021/12/14 03:28:37;;;;;;;10.10;6.95;;;9.20;99.90;;;;;;4165056;28;20037;-65
2021/12/14 03:31:04;;;;;;;8.95;6.07;;;9.20;99.90;;;;;;4164397;28;20468;-65
2021/12/14 03:33:17;;;;;;;9.13;6.45;;;9.10;99.90;;;;;;4157352;28;20088;-65
2021/12/14 03:35:19;;;;;;;8.70;6.30;;;9.10;99.90;;;;;;4167469;28;20029;-64
2021/12/14 03:37:22;;;;;;;9.93;6.68;;;9.10;99.90;;;;;;4168287;28;20049;-64
2021/12/14 03:39:24;;;;;;;11.05;6.63;;;9.20;99.90;;;;;;4168147;28;20061;-64
2021/12/14 03:41:30;;;;;;;13.13;7.13;;;9.20;99.90;;;;;;4167241;28;20112;-65
2021/12/14 03:43:30;;;;;;;11.30;7.10;;;9.10;99.90;;;;;;4168093;28;20128;-64
2021/12/14 03:45:31;;;;;;;12.68;7.53;;;9.10;99.90;;;;;;4167504;28;20049;-65
2021/12/14 03:47:43;;;;;;;13.32;8.55;;;9.10;99.90;;;;;;4168110;28;20113;-64
2021/12/14 03:49:54;;;;;;;13.15;8.07;;;9.10;99.90;;;;;;4168338;28;20115;-64
2021/12/14 03:51:55;;;;;;;10.30;7.00;;;9.10;99.90;;;;;;4167282;28;20061;-65
2021/12/14 03:53:57;;;;;;;11.40;7.15;;;9.10;99.90;;;;;;4167677;28;20554;-64
2021/12/14 03:56:02;;;;;;;13.83;7.90;;;9.10;99.90;;;;;;4166966;28;20029;-64
2021/12/14 03:58:10;;;;;;;13.52;7.18;;;9.10;99.90;;;;;;4167790;28;20037;-64
2021/12/14 04:00:23;;;;;;;13.05;8.57;;;9.10;99.90;;;;;;4167206;28;20033;-65
2021/12/14 04:02:24;;;;;;;;;;;9.10;99.90;;;;;;4168023;28;20365;-64
2021/12/14 04:04:37;;;;;;;15.55;8.02;;;9.10;99.90;;;;;;4167586;28;19987;-64
2021/12/14 04:06:39;;;;;;;13.85;8.27;;;9.10;99.90;;;;;;4167339;28;20480;-64
2021/12/14 04:08:40;;;;;;;16.77;9.55;;;9.00;99.90;;;;;;4167745;28;20472;-64
2021/12/14 04:10:44;;;;;;;16.27;9.60;;;9.00;99.90;;;;;;4166973;28;20079;-65
2021/12/14 04:12:44;;;;;;;14.77;9.13;;;9.00;99.90;;;;;;4167825;28;20045;-64
2021/12/14 04:14:51;;;;;;;13.93;9.00;;;9.00;99.90;;;;;;4167774;28;20037;-64
2021/12/14 04:16:52;;;;;;;12.88;8.63;;;8.90;99.90;;;;;;4167161;28;20495;-64
2021/12/14 04:18:55;;;;;;;12.52;8.65;;;9.00;99.90;;;;;;4167341;28;20033;-65
2021/12/14 04:20:58;;;;;;;14.80;8.65;;;9.00;99.90;;;;;;4167027;28;20037;-64
2021/12/14 04:23:00;;;;;;;13.48;8.70;;;9.00;99.90;;;;;;4167521;28;20483;-64
2021/12/14 04:25:06;;;;;;;13.25;9.13;;;9.10;99.90;;;;;;4167440;28;20025;-64
2021/12/14 04:27:17;;;;;;;13.27;8.93;;;9.00;99.90;;;;;;4167361;28;20452;-65
2021/12/14 04:29:18;;;;;;;13.13;7.95;;;9.00;99.90;;;;;;4167532;28;20033;-65
2021/12/14 04:31:20;;;;;;;12.63;8.07;;;9.10;99.90;;;;;;4166453;28;20392;-65
2021/12/14 04:33:30;;;;;;;12.23;7.63;;;9.10;99.90;;;;;;4167470;28;20037;-64
2021/12/14 04:35:37;;;;;;;14.88;9.15;;;9.10;99.90;;;;;;4166327;28;20034;-64
2021/12/14 04:37:40;;;;;;;13.55;9.05;;;9.00;99.90;;;;;;4166435;28;20029;-65
2021/12/14 04:39:46;;;;;;;12.63;8.30;;;9.00;99.90;;;;;;4166568;28;20033;-64
2021/12/14 04:53:42;;;;;;;12.68;9.13;;;9.00;99.90;;;;;;4166639;28;20480;-64
2021/12/14 04:55:44;;;;;;;14.02;8.63;;;9.00;99.90;;;;;;4166490;28;20460;-64
2021/12/14 04:57:46;;;;;;;;;;;9.00;99.90;;;;;;4166642;28;20408;-64
2021/12/14 04:59:49;;;;;;;14.98;8.10;;;9.10;99.90;;;;;;4166814;28;19912;-65
2021/12/14 05:01:52;;;;;;;12.30;8.40;;;9.10;99.90;;;;;;4165093;28;20029;-64
2021/12/14 05:03:55;;;;;;;11.00;7.80;;;9.00;99.90;;;;;;4166553;28;20486;-64
2021/12/14 05:06:10;;;;;;;11.05;7.20;;;9.00;99.90;;;;;;4165921;28;20036;-64
2021/12/14 05:10:17;;;;;;;14.95;8.68;;;9.10;99.90;;;;;;4165643;28;20053;-65
2021/12/14 05:12:24;;;;;;;10.98;7.75;;;9.00;99.90;;;;;;4165624;28;20361;-64
2021/12/14 05:14:27;;;;;;;11.52;8.20;;;9.00;99.90;;;;;;4165351;28;20041;-64
2021/12/14 05:16:30;;;;;;;9.88;7.25;;;9.00;99.90;;;;;;4164554;28;20033;-64
2021/12/14 05:18:31;;;;;;;9.95;7.18;;;9.10;99.90;;;;;;4166225;28;20088;-65
2021/12/14 05:20:32;;;;;;;10.13;7.22;;;9.10;99.90;;;;;;4165522;28;20033;-65
2021/12/14 05:22:36;;;;;;;9.50;6.88;;;9.10;99.90;;;;;;4166260;28;20072;-64
2021/12/14 05:24:40;;;;;;;11.05;7.65;;;9.10;99.90;;;;;;4166425;28;20034;-64
2021/12/14 05:26:42;;;;;;;11.00;7.35;;;9.10;99.90;;;;;;4165549;28;20036;-65
2021/12/14 05:28:43;;;;;;;9.32;6.72;;;9.10;99.90;;;;;;4164985;28;20326;-65
2021/12/14 05:30:46;;;;;;;10.73;7.43;;;9.10;99.90;;;;;;4165636;28;20522;-64
2021/12/14 05:32:47;;;;;;;9.38;6.95;;;9.10;99.90;;;;;;4165976;28;20411;-64
2021/12/14 05:34:49;;;;;;;9.27;7.03;;;9.10;99.90;;;;;;4166007;28;20044;-64
2021/12/14 05:36:50;;;;;;;9.27;6.85;;;9.10;99.90;;;;;;4163902;28;20030;-64
2021/12/14 05:38:59;;;;;;;9.43;7.13;;;9.00;99.90;;;;;;4165019;28;20056;-64
2021/12/14 05:41:10;;;;;;;9.05;6.72;;;9.00;99.90;;;;;;4165105;28;20056;-64
2021/12/14 05:43:16;;;;;;;8.13;6.10;;;9.00;99.90;;;;;;4165919;28;20037;-64
2021/12/14 05:45:21;;;;;;;9.82;6.88;;;9.00;99.90;;;;;;4165224;28;20037;-65
2021/12/14 05:47:22;;;;;;;11.13;7.82;;;9.00;99.90;;;;;;4165676;28;20038;-65
2021/12/14 05:49:25;;;;;;;9.02;6.95;;;9.00;99.90;;;;;;4165599;28;20369;-64
2021/12/14 05:51:28;;;;;;;8.57;6.35;;;9.00;99.90;;;;;;4165141;28;20053;-64
2021/12/14 05:53:33;;;;;;;8.18;6.45;;;9.00;99.90;;;;;;4165224;28;20053;-64
2021/12/14 05:55:38;;;;;;;9.48;7.38;;;9.00;99.90;;;;;;4164268;28;20068;-64
2021/12/14 05:57:39;;;;;;;11.38;7.70;;;9.00;99.90;;;;;;4165372;28;20025;-64
2021/12/14 05:59:40;;;;;;;11.77;7.35;;;9.00;99.90;;;;;;4165814;28;20076;-64
2021/12/14 06:01:41;;;;;;;9.25;7.13;;;9.00;99.90;;;;;;4164775;28;20029;-65
2021/12/14 06:03:48;;;;;;;11.07;7.80;;;9.00;99.90;;;;;;4165296;28;20491;-64
2021/12/14 06:05:50;;;;;;;9.32;7.05;;;8.90;99.90;;;;;;4164928;28;20387;-64
2021/12/14 06:07:51;;;;;;;8.23;6.28;;;8.90;99.90;;;;;;4165700;28;20029;-65
2021/12/14 06:09:52;;;;;;;8.77;6.72;;;9.00;99.90;;;;;;4165467;28;20055;-65
2021/12/14 06:11:57;;;;;;;8.20;6.15;;;9.00;99.90;;;;;;4165104;28;20384;-64
2021/12/14 06:13:58;;;;;;;8.70;6.18;;;9.00;99.90;;;;;;4165335;28;20053;-64
2021/12/14 06:15:59;;;;;;;7.35;5.82;;;9.00;99.90;;;;;;4164458;28;20392;-66
2021/12/14 06:18:00;;;;;;;8.57;6.05;;;9.00;99.90;;;;;;4165452;28;20033;-65
2021/12/14 06:20:07;;;;;;;8.68;6.40;;;9.10;99.90;;;;;;4165080;28;20072;-65
2021/12/14 06:22:15;;;;;;;7.95;6.07;;;9.00;99.90;;;;;;4164842;28;20045;-64
2021/12/14 06:24:17;;;;;;;8.32;6.18;;;9.00;99.90;;;;;;4165400;28;20357;-64
2021/12/14 06:26:19;;;;;;;10.27;6.63;;;9.00;99.90;;;;;;4164578;28;20029;-65
2021/12/14 06:28:25;;;;;;;10.90;8.02;;;9.00;99.90;;;;;;4164685;28;20025;-64
2021/12/14 06:30:30;;;;;;;8.93;6.55;;;9.00;99.90;;;;;;4162567;28;20037;-65
2021/12/14 06:32:39;;;;;;;10.15;6.78;;;9.00;99.90;;;;;;4163279;28;20041;-64
2021/12/14 06:34:43;;;;;;;9.35;7.07;;;8.90;99.90;;;;;;4163824;28;20128;-65
2021/12/14 06:36:51;;;;;;;9.52;7.22;;;9.00;99.90;;;;;;4164483;28;20392;-65
2021/12/14 06:38:51;;;;;;;9.30;6.75;;;9.00;99.90;;;;;;4156932;28;20040;-64
2021/12/14 06:41:04;;;;;;;8.38;6.63;;;9.00;99.90;;;;;;4164718;28;20391;-65
2021/12/14 06:43:10;;;;;;;8.13;6.10;;;9.00;99.90;;;;;;4165129;28;20689;-65
2021/12/14 06:45:16;;;;;;;8.32;5.85;;;9.00;99.90;;;;;;4164908;28;20034;-65
2021/12/14 06:47:17;;;;;;;10.30;7.07;;;9.00;99.90;;;;;;4165379;28;20527;-65
2021/12/14 06:49:20;;;;;;;8.90;6.60;;;9.00;99.90;;;;;;4165142;28;20040;-64
2021/12/14 06:51:28;;;;;;;9.27;6.28;;;9.00;99.90;;;;;;4164490;28;20372;-65
2021/12/14 06:53:30;;;;;;;9.13;7.10;;;9.00;99.90;;;;;;4164821;28;20049;-64
2021/12/14 06:55:33;;;;;;;9.30;6.95;;;9.00;99.90;;;;;;4164314;28;20044;-65
2021/12/14 06:57:34;;;;;;;9.23;7.05;;;8.90;99.90;;;;;;4165491;28;20036;-64
2021/12/14 06:59:35;;;;;;;10.02;6.80;;;9.00;99.90;;;;;;4165130;28;20026;-64
2021/12/14 07:01:40;;;;;;;7.70;6.20;;;9.00;99.90;;;;;;4164785;28;20037;-64
2021/12/14 07:03:45;;;;;;;9.50;6.80;;;9.00;99.90;;;;;;4164934;28;20040;-64
2021/12/14 07:05:49;;;;;;;8.63;6.68;;;9.00;99.90;;;;;;4163943;28;20053;-65
2021/12/14 07:07:51;;;;;;;8.60;6.38;;;9.00;99.90;;;;;;4164791;28;20033;-65
2021/12/14 07:10:00;;;;;;;8.88;6.80;;;9.00;99.90;;;;;;4164957;28;20112;-64
2021/12/14 07:12:07;;;;;;;10.55;7.60;;;9.00;99.90;;;;;;4164311;28;20083;-64
2021/12/14 07:14:27;;;;;;;8.57;6.40;;;9.00;99.90;;;;;;4164773;28;20037;-65
2021/12/14 07:16:32;;;;;;;11.23;8.20;;;9.00;99.90;;;;;;4164174;28;20387;-64
2021/12/14 07:18:34;;;;;;;10.40;7.57;;;9.00;99.90;;;;;;4163927;28;20033;-64
2021/12/14 07:20:43;;;;;;;10.43;7.40;;;9.00;99.90;;;;;;4163893;28;20034;-65
2021/12/14 07:22:47;;;;;;;10.68;7.70;;;9.00;99.90;;;;;;4164993;28;20086;-64
2021/12/14 07:25:02;;;;;;;10.98;7.50;;;9.00;99.90;;;;;;4164634;28;20045;-65
2021/12/14 07:27:49;;;;;;;9.38;6.93;;;9.00;99.90;;;;;;4164221;28;20061;-64
2021/12/14 07:29:52;;;;;;;11.77;8.15;;;9.00;99.90;;;;;;4164011;28;20088;-64
2021/12/14 07:31:53;;;;;;;11.90;8.07;;;9.00;99.90;;;;;;4162894;28;20040;-65
2021/12/14 07:33:57;;;;;;;12.65;8.15;;;9.00;99.90;;;;;;4163996;28;20029;-65
2021/12/14 07:36:08;;;;;;;14.50;8.43;;;9.10;99.90;;;;;;4164272;28;20029;-65
2021/12/14 07:38:26;;;;;;;11.40;8.00;;;9.00;99.90;;;;;;4164334;28;20114;-65
2021/12/14 07:40:37;;;;;;;13.15;9.02;;;9.00;99.90;;;;;;4163984;28;20033;-65
2021/12/14 07:42:37;;;;;;;13.27;9.15;;;9.00;99.90;;;;;;4164821;28;20132;-65
2021/12/14 07:44:39;;;;;;;13.32;9.30;;;8.90;99.90;;;;;;4164871;28;20029;-65
2021/12/14 07:46:52;;;;;;;9.43;7.18;;;9.00;99.90;;;;;;4163396;28;20361;-65
2021/12/14 07:48:54;;;;;;;;;;;9.00;99.90;;;;;;4165197;28;20041;-65
2021/12/14 07:50:56;;;;;;;;;;;9.00;99.90;;;;;;4164825;28;19909;-65
2021/12/14 07:52:56;;;;;;;;;;;9.00;99.90;;;;;;4164654;28;19917;-65
2021/12/14 07:55:00;;;;;;;;;;;9.00;99.90;;;;;;4165132;28;19909;-65
2021/12/14 07:57:02;;;;;;;;;;;9.00;99.90;;;;;;4164471;28;19928;-64
2021/12/14 07:59:08;;;;;;;;;;;9.00;99.90;;;;;;4165021;28;20390;-65
2021/12/14 08:01:09;;;;;;;;;;;8.90;99.90;;;;;;4164333;28;19983;-65
2021/12/14 08:03:10;;;;;;;;;;;8.90;99.90;;;;;;4164988;28;19909;-65
2021/12/14 08:05:24;;;;;;;;;;;8.90;99.90;;;;;;4162518;28;19936;-65
2021/12/14 08:07:24;;;;;;;;;;;8.90;99.90;;;;;;4165117;28;20284;-65
2021/12/14 08:09:46;;;;;;;;;;;8.90;99.90;;;;;;4164911;28;19955;-65
2021/12/14 08:11:47;;;;;;;;;;;8.90;99.90;;;;;;4164390;28;19905;-66
2021/12/14 08:13:49;;;;;;;;;;;9.00;99.90;;;;;;4165040;28;19916;-65
2021/12/14 08:15:53;;;;;;;;;;;9.00;99.90;;;;;;4164481;28;19959;-65
2021/12/14 08:18:08;;;;;;;;;;;9.00;99.90;;;;;;4165708;28;19905;-65
2021/12/14 08:20:12;;;;;;;;;;;9.00;99.90;;;;;;4167675;28;19909;-64
2021/12/14 08:22:27;;;;;;;;;;;9.00;99.90;;;;;;4168186;28;19911;-64
2021/12/14 08:24:27;;;;;;;;;;;9.00;99.90;;;;;;4168313;28;19959;-64
2021/12/14 08:26:35;;;;;;;;;;;9.00;99.90;;;;;;4167469;28;20359;-64
2021/12/14 08:28:51;;;;;;;;;;;9.00;99.90;;;;;;4168466;28;19905;-64
2021/12/14 08:30:57;;;;;;;;;;;9.00;99.90;;;;;;4167404;28;19909;-65
2021/12/14 08:32:58;;;;;;;;;;;9.00;99.90;;;;;;4167921;28;20000;-64
2021/12/14 08:35:00;;;;;;;;;;;9.10;99.90;;;;;;4167785;28;19955;-65
2021/12/14 08:37:09;;;;;;;;;;;9.00;99.90;;;;;;4166777;28;19992;-65
2021/12/14 08:39:16;;;;;;;;;;;9.00;99.90;;;;;;4167808;28;19906;-64
2021/12/14 08:41:23;;;;;;;;;;;9.00;99.90;;;;;;4167025;28;19905;-64
2021/12/14 08:43:30;;;;;;;;;;;9.00;99.90;;;;;;4167603;28;19905;-65
2021/12/14 08:45:38;;;;;;;;;;;9.00;99.90;;;;;;4165552;28;19909;-65
2021/12/14 08:47:41;;;;;;;;;;;9.00;99.90;;;;;;4167558;28;19992;-64
2021/12/14 08:49:42;;;;;;;;;;;8.90;99.90;;;;;;4167443;28;19948;-64
2021/12/14 08:51:44;;;;;;;;;;;8.90;99.90;;;;;;4166909;28;20309;-64
2021/12/14 08:53:47;;;;;;;;;;;8.90;99.90;;;;;;4167695;28;20022;-64
2021/12/14 08:55:49;;;;;;;;;;;8.90;99.90;;;;;;4166917;28;19909;-64
2021/12/14 08:57:49;;;;;;;;;;;8.90;99.90;;;;;;4167429;28;20220;-64
2021/12/14 08:59:52;;;;;;;;;;;8.90;99.90;;;;;;4167129;28;19912;-64
2021/12/14 09:01:53;;;;;;;;;;;8.90;99.90;;;;;;4166811;28;19909;-65
2021/12/14 09:03:57;;;;;;;;;;;8.90;99.90;;;;;;4167334;28;20351;-64
2021/12/14 09:05:59;;;;;;;;;;;8.90;99.90;;;;;;4166599;28;19992;-65
2021/12/14 09:08:01;;;;;;;;;;;8.90;99.90;;;;;;4167415;28;19909;-64
2021/12/14 09:10:05;;;;;;;;;;;8.90;99.90;;;;;;4167287;28;20008;-64
2021/12/14 09:12:06;;;;;;;;;;;8.90;99.90;;;;;;4166543;28;19913;-65
2021/12/14 09:14:09;;;;;;;;;;;8.90;99.90;;;;;;4167112;28;19905;-64
2021/12/14 09:16:12;;;;;;;;;;;8.90;99.90;;;;;;4166570;28;19909;-64
2021/12/14 09:18:14;;;;;;;;;;;9.00;99.90;;;;;;4166997;28;19909;-64
2021/12/14 09:20:16;;;;;;;;;;;8.90;99.90;;;;;;4166436;28;19999;-65
2021/12/14 09:22:25;;;;;;;;;;;8.90;99.90;;;;;;4166922;28;19905;-64
2021/12/14 09:24:27;;;;;;;;;;;9.00;99.90;;;;;;4166845;28;20003;-64
2021/12/14 09:26:31;;;;;;;;;;;9.00;99.90;;;;;;4166344;28;19909;-64
2021/12/14 09:28:31;;;;;;;;;;;8.90;99.90;;;;;;4166910;28;19913;-64
2021/12/14 09:30:34;;;;;;;;;;;9.00;99.90;;;;;;4166046;28;20253;-64
2021/12/14 09:32:36;;;;;;;;;;;8.90;99.90;;;;;;4166620;28;19920;-64
2021/12/14 09:34:38;;;;;;;;;;;8.90;99.90;;;;;;4166739;28;19905;-65
2021/12/14 09:36:39;;;;;;;;;;;9.00;99.90;;;;;;4166257;28;19905;-65
2021/12/14 09:38:42;;;;;;;;;;;9.00;99.90;;;;;;4166876;28;19912;-65
2021/12/14 09:40:51;;;;;;;;;;;9.00;99.90;;;;;;4165881;28;19905;-65
2021/12/14 09:42:53;;;;;;;;;;;9.00;99.90;;;;;;4166611;28;19996;-65
2021/12/14 09:44:55;;;;;;;;;;;9.00;99.90;;;;;;4166531;28;20360;-65
2021/12/14 09:46:58;;;;;;;;;;;8.90;99.90;;;;;;4164354;28;19951;-65
2021/12/14 09:49:00;;;;;;;;;;;8.90;99.90;;;;;;4166754;28;19912;-65
2021/12/14 09:51:07;;;;;;;;;;;8.90;99.90;;;;;;4165999;28;20379;-65
2021/12/14 09:53:09;;;;;;;;;;;9.00;99.90;;;;;;4166333;28;20002;-65
2021/12/14 09:55:14;;;;;;;;;;;8.90;99.90;;;;;;4166163;28;20397;-65
2021/12/14 09:57:20;;;;;;;;;;;9.00;99.90;;;;;;4166312;28;19959;-65
2021/12/14 09:59:21;;;;;;;;;;;9.00;99.90;;;;;;4166317;28;20256;-65
2021/12/14 10:01:24;;;;;;;;;;;9.00;99.90;;;;;;4165721;28;19951;-65
2021/12/14 10:03:25;;;;;;;;;;;9.00;99.90;;;;;;4166345;28;19909;-65
2021/12/14 10:05:28;;;;;;;;;;;9.00;99.90;;;;;;4165928;28;20375;-65
2021/12/14 10:07:29;;;;;;;;;;;9.00;99.90;;;;;;4166496;28;19955;-65
2021/12/14 10:09:31;;;;;;;;;;;9.10;99.90;;;;;;4166133;28;20284;-65
2021/12/14 10:12:48;;;;;;;;;;;9.00;99.90;;;;;;4165625;28;19905;-65
2021/12/14 10:14:03;;;;;;;;;;;9.10;99.90;;;;;;4160494;28;19920;-65
2021/12/14 10:16:05;;;;;;;;;;;9.00;99.90;;;;;;4165446;28;19905;-65
2021/12/14 10:18:14;;;;;;;;;;;9.00;99.90;;;;;;4166371;28;19966;-65
2021/12/14 10:20:18;;;;;;;;;;;9.00;99.90;;;;;;4164560;28;19909;-66
2021/12/14 10:22:24;;;;;;;;;;;9.10;99.90;;;;;;4166106;28;20303;-65
2021/12/14 10:24:27;;;;;;;;;;;9.10;99.90;;;;;;4166188;28;19905;-65
2021/12/14 10:26:29;;;;;;;;;;;9.10;99.90;;;;;;4165260;28;19905;-65
2021/12/14 10:28:31;;;;;;;;;;;9.10;99.90;;;;;;4166037;28;20276;-65
2021/12/14 10:30:34;;;;;;;;;;;9.10;99.90;;;;;;4165550;28;19966;-65
2021/12/14 10:32:35;;;;;;;;;;;9.10;99.90;;;;;;4166080;28;20371;-65
2021/12/14 10:34:40;;;;;;;;;;;9.10;99.90;;;;;;4165969;28;20363;-65
2021/12/14 10:36:45;;;;;;;;;;;9.10;99.90;;;;;;4164996;28;19963;-65
2021/12/14 10:43:41;;;;;;;;;;;9.20;99.90;;;;;;4160199;28;19905;-65
2021/12/14 10:45:55;;;;;;;;;;;9.20;99.90;;;;;;4164941;28;19912;-65
2021/12/14 10:47:57;;;;;;;;;;;9.20;99.90;;;;;;4165612;28;19980;-65
2021/12/14 10:49:59;;;;;;;;;;;9.20;99.90;;;;;;4165510;28;19905;-65
2021/12/14 10:52:02;;;;;;;;;;;9.20;99.90;;;;;;4165067;28;20291;-65
2021/12/14 10:54:04;;;;;;;;;;;9.10;99.90;;;;;;4165839;28;19917;-65
2021/12/14 10:56:09;;;;;;;;;;;9.20;99.90;;;;;;4165044;28;19955;-65
2021/12/14 10:58:10;;;;;;;;;;;9.20;99.90;;;;;;4165637;28;19915;-65
2021/12/14 11:00:13;;;;;;;;;;;9.10;99.90;;;;;;4164992;28;19905;-65
2021/12/14 11:02:14;;;;;;;;;;;9.10;99.90;;;;;;4165763;28;20382;-65
2021/12/14 11:04:16;;;;;;;;;;;9.20;99.90;;;;;;4165525;28;19913;-65
2021/12/14 11:06:20;;;;;;;;;;;9.20;99.90;;;;;;4165125;28;19905;-65
2021/12/14 11:08:49;;;;;;;;;;;9.20;99.90;;;;;;4165572;28;19905;-65
2021/12/14 11:10:42;;;;;;;;;;;9.10;99.90;;;;;;4164631;28;19914;-65
2021/12/14 11:12:45;;;;;;;;;;;9.20;99.90;;;;;;4165156;28;20363;-65
2021/12/14 11:14:46;;;;;;;;;;;9.20;99.90;;;;;;4165889;28;19948;-65
2021/12/14 11:19:07;;;;;;;;;;;9.20;99.90;;;;;;4165404;28;19909;-65
2021/12/14 11:21:12;;;;;;;;;;;9.20;99.90;;;;;;4164678;28;20399;-65
2021/12/14 11:23:13;;;;;;;;;;;9.20;99.90;;;;;;4165237;28;20330;-65
2021/12/14 11:25:19;;;;;;;;;;;9.20;99.90;;;;;;4164580;28;19905;-65
2021/12/14 11:27:30;;;;;;;;;;;9.30;99.90;;;;;;4165276;28;19911;-65
2021/12/14 11:29:31;;;;;;;;;;;9.30;99.90;;;;;;4165279;28;20004;-65
2021/12/14 11:31:41;;;;;;;;;;;9.30;99.90;;;;;;4164543;28;19905;-65
2021/12/14 11:33:45;;;;;;;;;;;9.30;99.90;;;;;;4165354;28;20003;-65
2021/12/14 11:35:50;;;;;;;;;;;9.30;99.90;;;;;;4164745;28;19904;-65
2021/12/14 11:37:50;;;;;;;;;;;9.30;99.90;;;;;;4165043;28;19913;-66
2021/12/14 11:39:53;;;;;;;;;;;9.40;99.90;;;;;;4165478;28;19905;-65
2021/12/14 11:41:58;;;;;;;;;;;9.40;99.90;;;;;;4163661;28;19905;-64
2021/12/14 11:44:06;;;;;;;;;;;9.40;99.90;;;;;;4165206;28;19928;-64
2021/12/14 11:46:07;;;;;;;;;;;9.30;99.90;;;;;;4164529;28;19963;-64
2021/12/14 11:48:08;;;;;;;;;;;9.30;99.90;;;;;;4165188;28;19905;-64
2021/12/14 11:50:11;;;;;;;;;;;9.30;99.90;;;;;;4164957;28;19948;-65
2021/12/14 11:52:12;;;;;;;;;;;9.40;99.90;;;;;;4165173;28;19928;-64